createdAt,value
2023-09-10T00:01:33.000Z,3.212
2023-09-10T00:17:15.729Z,3.212
2023-09-10T00:32:58.115Z,3.212
2023-09-10T00:48:40.802Z,3.212
2023-09-10T01:04:23.358Z,3.212
2023-09-10T01:20:06.285Z,3.212
2023-09-10T01:35:48.720Z,3.212
2023-09-10T01:51:30.828Z,3.212
2023-09-10T02:07:13.643Z,3.212
2023-09-10T02:22:55.839Z,3.212
2023-09-10T02:38:38.103Z,3.212
2023-09-10T02:54:21.077Z,3.212
2023-09-10T03:10:03.819Z,3.212
2023-09-10T03:25:46.052Z,3.212
2023-09-10T03:41:28.882Z,3.213
2023-09-10T03:57:11.127Z,3.212
2023-09-10T04:12:53.297Z,3.212
2023-09-10T04:28:35.540Z,3.212
2023-09-10T04:29:22.843Z,3.209
2023-09-10T04:45:05.475Z,3.212
2023-09-10T05:00:48.240Z,3.212
2023-09-10T05:16:30.548Z,3.212
2023-09-10T05:32:12.652Z,3.213
2023-09-10T05:47:54.749Z,3.22
2023-09-10T06:03:37.420Z,3.221
2023-09-10T06:19:19.676Z,3.223
2023-09-10T06:35:01.828Z,3.224
2023-09-10T06:50:44.725Z,3.224
2023-09-10T07:06:27.626Z,3.225
2023-09-10T07:22:09.813Z,3.227
2023-09-10T07:37:52.047Z,3.232
2023-09-10T07:53:34.110Z,3.232
2023-09-10T08:09:16.955Z,3.234
2023-09-10T08:24:59.832Z,3.491
2023-09-10T08:40:42.624Z,3.397
2023-09-10T08:56:24.965Z,3.371
2023-09-10T09:12:07.177Z,3.354
2023-09-10T09:27:49.913Z,3.341
2023-09-10T09:43:32.205Z,3.33
2023-09-10T09:59:14.112Z,3.308
2023-09-10T10:14:56.484Z,3.3
2023-09-10T10:30:39.148Z,3.292
2023-09-10T10:46:21.369Z,3.285
2023-09-10T11:02:04.099Z,3.279
2023-09-10T11:17:46.533Z,3.272
2023-09-10T11:33:28.953Z,3.268
2023-09-10T11:49:11.115Z,3.263
2023-09-10T12:04:53.716Z,3.259
2023-09-10T12:20:35.888Z,3.256
2023-09-10T12:36:17.712Z,3.252
2023-09-10T12:52:00.082Z,3.249
2023-09-10T13:07:42.302Z,3.47
2023-09-10T13:23:24.948Z,3.447
2023-09-10T13:39:06.842Z,3.426
2023-09-10T13:54:49.385Z,3.408
2023-09-10T14:10:31.244Z,3.393
2023-09-10T14:26:13.815Z,3.379
2023-09-10T14:57:38.883Z,3.354
2023-09-10T15:13:21.484Z,3.341
2023-09-10T15:29:03.942Z,3.332
2023-09-10T15:44:46.577Z,3.31
2023-09-10T16:00:28.396Z,3.3
2023-09-10T16:16:10.527Z,3.29
2023-09-10T16:31:52.933Z,3.283
2023-09-10T16:47:35.663Z,3.276
2023-09-10T17:03:18.447Z,3.27
2023-09-10T17:19:01.040Z,3.264
2023-09-10T17:34:43.595Z,3.259
2023-09-10T17:50:25.850Z,3.253
2023-09-10T18:06:07.988Z,3.249
2023-09-10T18:21:50.257Z,3.245
2023-09-10T18:37:32.240Z,3.241
2023-09-10T18:53:14.704Z,3.238
2023-09-10T19:08:56.831Z,3.234
2023-09-10T19:24:39.670Z,3.232
2023-09-10T19:40:22.625Z,3.231
2023-09-10T19:56:04.859Z,3.228
2023-09-10T20:11:47.108Z,3.227
2023-09-10T20:27:30.180Z,3.225
2023-09-10T20:43:11.983Z,3.218
2023-09-10T21:14:36.266Z,3.216
2023-09-10T21:30:18.324Z,3.217
2023-09-10T21:46:00.835Z,3.214
2023-09-10T22:01:43.063Z,3.213
2023-09-10T22:17:25.912Z,3.213
2023-09-10T22:33:08.706Z,3.212
2023-09-10T22:48:51.502Z,3.212
2023-09-10T23:20:16.918Z,3.212
2023-09-10T23:35:59.435Z,3.212
2023-09-10T23:51:41.999Z,3.212
